createdAt,value
2018-03-20T00:00:21.155Z,93765.67
2018-03-20T00:02:47.128Z,93758.79
2018-03-20T00:05:13.123Z,93753.86
2018-03-20T00:07:39.119Z,93757.59
2018-03-20T00:10:05.119Z,93753.47
2018-03-20T00:12:31.106Z,93757.20
2018-03-20T00:14:57.103Z,93757.41
2018-03-20T00:17:23.091Z,93751.30
2018-03-20T00:19:49.121Z,93754.25
2018-03-20T00:22:15.123Z,93753.86
2018-03-20T00:24:41.115Z,93753.06
2018-03-20T00:27:07.104Z,93759.18
2018-03-20T00:29:33.100Z,93758.17
2018-03-20T00:31:59.126Z,93756.42
2018-03-20T00:34:25.090Z,93751.50
2018-03-20T00:36:51.121Z,93750.13
2018-03-20T00:39:17.096Z,93751.50
2018-03-20T00:41:43.082Z,93743.82
2018-03-20T00:44:09.098Z,93744.80
2018-03-20T00:46:35.116Z,93744.41
2018-03-20T00:49:01.106Z,93741.28
2018-03-20T00:51:27.120Z,93735.77
2018-03-20T00:53:53.090Z,93735.37
2018-03-20T00:56:19.077Z,93737.33
2018-03-20T00:58:45.073Z,93734.98
2018-03-20T01:01:11.108Z,93733.78
2018-03-20T01:03:37.105Z,93740.27
2018-03-20T01:06:03.094Z,93740.88
2018-03-20T01:08:29.092Z,93742.25
2018-03-20T01:10:55.087Z,93738.52
2018-03-20T01:13:21.150Z,93747.76
2018-03-20T01:15:47.132Z,93751.48
2018-03-20T01:18:13.130Z,93755.22
2018-03-20T01:20:39.096Z,93753.05
2018-03-20T01:23:05.100Z,93753.84
2018-03-20T01:25:31.124Z,93747.75
2018-03-20T01:27:57.117Z,93756.41
2018-03-20T01:30:23.138Z,93763.08
2018-03-20T01:32:49.112Z,93772.13
2018-03-20T01:35:15.100Z,93770.94
2018-03-20T01:37:41.102Z,93773.69
2018-03-20T01:40:07.089Z,93781.95
2018-03-20T01:42:33.101Z,93789.41
2018-03-20T01:44:59.092Z,93785.67
2018-03-20T01:47:25.091Z,93787.66
2018-03-20T01:49:51.088Z,93788.64
2018-03-20T01:52:17.086Z,93789.22
2018-03-20T01:54:43.074Z,93789.62
2018-03-20T01:57:09.068Z,93785.66
2018-03-20T01:59:35.056Z,93779.98
2018-03-20T02:02:01.059Z,93784.50
2018-03-20T02:04:27.047Z,93786.64
2018-03-20T02:06:53.057Z,93783.52
2018-03-20T02:09:19.060Z,93795.91
2018-03-20T02:11:45.059Z,93784.11
2018-03-20T02:14:11.068Z,93792.94
2018-03-20T02:16:37.062Z,93794.72
2018-03-20T02:19:03.054Z,93796.67
2018-03-20T02:21:29.043Z,93790.77
2018-03-20T02:23:55.036Z,93793.52
2018-03-20T02:26:21.033Z,93795.51
2018-03-20T02:28:47.062Z,93796.88
2018-03-20T02:31:13.141Z,93792.75
2018-03-20T02:33:39.043Z,93797.46
2018-03-20T02:36:05.070Z,93796.66
2018-03-20T02:38:31.108Z,93799.02
2018-03-20T02:40:57.072Z,93797.86
2018-03-20T02:43:23.104Z,93801.00
2018-03-20T02:45:49.071Z,93793.33
2018-03-20T02:48:15.068Z,93794.13
2018-03-20T02:50:41.063Z,93795.28
2018-03-20T02:53:07.076Z,93801.58
2018-03-20T02:55:33.070Z,93798.43
2018-03-20T02:57:59.061Z,93800.78
2018-03-20T03:00:25.084Z,93794.52
2018-03-20T03:02:51.071Z,93801.00
2018-03-20T03:05:17.102Z,93793.31
2018-03-20T03:07:43.055Z,93799.22
2018-03-20T03:10:09.059Z,93801.17
2018-03-20T03:12:35.109Z,93807.48
2018-03-20T03:15:01.074Z,93809.64
2018-03-20T03:17:27.089Z,93801.56
2018-03-20T03:19:53.120Z,93805.88
2018-03-20T03:22:19.110Z,93809.03
2018-03-20T03:24:45.132Z,93808.26
2018-03-20T03:27:11.119Z,93805.52
2018-03-20T03:29:37.156Z,93804.71
2018-03-20T03:32:03.115Z,93810.39
2018-03-20T03:34:29.117Z,93811.59
2018-03-20T03:36:55.103Z,93817.27
2018-03-20T03:39:21.146Z,93816.88
2018-03-20T03:41:47.147Z,93814.52
2018-03-20T03:44:13.105Z,93820.42
2018-03-20T03:46:39.125Z,93823.76
2018-03-20T03:49:05.093Z,93825.74
2018-03-20T03:51:31.075Z,93818.47
2018-03-20T03:53:57.072Z,93817.48
2018-03-20T03:56:23.071Z,93827.70
2018-03-20T03:58:49.101Z,93825.52
2018-03-20T04:01:15.067Z,93827.30
2018-03-20T04:03:41.075Z,93825.13
2018-03-20T04:06:07.102Z,93824.36
2018-03-20T04:08:33.063Z,93833.59
2018-03-20T04:10:59.052Z,93839.67
2018-03-20T04:13:25.057Z,93837.72
2018-03-20T04:15:51.103Z,93840.88
2018-03-20T04:18:17.099Z,93840.88
2018-03-20T04:20:43.107Z,93839.67
2018-03-20T04:23:09.113Z,93843.22
2018-03-20T04:25:35.110Z,93848.91
2018-03-20T04:28:01.104Z,93850.86
2018-03-20T04:30:27.137Z,93847.92
2018-03-20T04:32:53.135Z,93864.63
2018-03-20T04:35:19.121Z,93870.73
2018-03-20T04:37:45.128Z,93873.09
2018-03-20T04:40:11.146Z,93873.27
2018-03-20T04:42:37.141Z,93880.55
2018-03-20T04:45:03.156Z,93885.07
2018-03-20T04:47:29.151Z,93892.53
2018-03-20T04:49:56.081Z,93891.76
2018-03-20T04:52:21.164Z,93904.14
2018-03-20T04:54:47.135Z,93906.09
2018-03-20T04:57:13.133Z,93912.58
2018-03-20T04:59:39.183Z,93910.23
2018-03-20T05:02:05.185Z,93920.03
2018-03-20T05:04:31.176Z,93914.34
2018-03-20T05:06:57.164Z,93916.13
2018-03-20T05:09:23.164Z,93915.52
2018-03-20T05:11:49.165Z,93915.73
2018-03-20T05:14:15.161Z,93917.69
2018-03-20T05:16:41.143Z,93918.08
2018-03-20T05:19:07.147Z,93925.36
2018-03-20T05:21:33.168Z,93931.84
2018-03-20T05:23:59.165Z,93938.32
2018-03-20T05:26:25.189Z,93935.38
2018-03-20T05:28:51.158Z,93934.77
2018-03-20T05:31:17.202Z,93940.28
2018-03-20T05:33:43.196Z,93949.54
2018-03-20T05:36:09.156Z,93948.73
2018-03-20T05:38:35.276Z,93946.17
2018-03-20T05:41:01.266Z,93951.11
2018-03-20T05:43:27.288Z,93959.92
2018-03-20T05:45:53.298Z,93956.41
2018-03-20T05:48:19.306Z,93955.61
2018-03-20T05:50:45.362Z,93955.40
2018-03-20T05:53:11.482Z,93957.97
2018-03-20T05:55:37.478Z,93956.78
2018-03-20T05:58:03.510Z,93961.12
2018-03-20T06:00:29.484Z,93965.25
2018-03-20T06:02:55.476Z,93961.92
2018-03-20T06:05:21.496Z,93966.81
2018-03-20T06:07:47.504Z,93968.19
2018-03-20T06:10:13.482Z,93974.67
2018-03-20T06:12:39.470Z,93974.30
2018-03-20T06:15:05.472Z,93981.38
2018-03-20T06:17:31.572Z,93987.45
2018-03-20T06:19:57.561Z,93990.02
2018-03-20T06:22:23.602Z,93991.80
2018-03-20T06:24:49.641Z,93997.48
2018-03-20T06:27:15.632Z,94006.53
2018-03-20T06:29:41.630Z,94012.22
2018-03-20T06:32:07.660Z,94012.83
2018-03-20T06:34:33.697Z,94009.87
2018-03-20T06:36:59.637Z,94010.45
2018-03-20T06:39:25.636Z,94013.59
2018-03-20T06:41:51.655Z,94022.25
2018-03-20T06:44:17.655Z,94028.16
2018-03-20T06:46:43.648Z,94032.69
2018-03-20T06:49:09.659Z,94032.28
2018-03-20T06:51:35.655Z,94040.14
2018-03-20T06:54:01.809Z,94041.73
2018-03-20T06:56:27.824Z,94048.00
2018-03-20T06:58:53.850Z,94053.50
2018-03-20T07:01:19.859Z,94047.80
2018-03-20T07:03:45.855Z,94054.28
2018-03-20T07:06:11.874Z,94051.94
2018-03-20T07:08:37.861Z,94052.72
2018-03-20T07:11:03.863Z,94053.31
2018-03-20T07:13:29.847Z,94049.36
2018-03-20T07:15:55.893Z,94049.18
2018-03-20T07:18:21.891Z,94051.13
2018-03-20T07:20:48.005Z,94044.08
2018-03-20T07:23:14.041Z,94049.97
2018-03-20T07:25:43.157Z,94046.83
2018-03-20T07:28:09.140Z,94047.41
2018-03-20T07:30:35.135Z,94055.84
2018-03-20T07:33:01.122Z,94061.58
2018-03-20T07:35:27.169Z,94056.25
2018-03-20T07:37:53.135Z,94063.13
2018-03-20T07:40:19.127Z,94070.02
2018-03-20T07:42:45.124Z,94064.31
2018-03-20T07:45:11.164Z,94070.63
2018-03-20T07:47:37.145Z,94076.70
2018-03-20T07:50:03.153Z,94077.86
2018-03-20T07:52:29.172Z,94079.63
2018-03-20T07:54:55.158Z,94087.11
2018-03-20T07:57:21.173Z,94097.13
2018-03-20T07:59:47.215Z,94097.12
2018-03-20T08:02:13.238Z,94097.73
2018-03-20T08:04:39.242Z,94094.98
2018-03-20T08:07:05.242Z,94106.00
2018-03-20T08:09:31.268Z,94102.05
2018-03-20T08:11:57.260Z,94102.83
2018-03-20T08:14:23.277Z,94090.19
2018-03-20T08:16:49.267Z,94092.22
2018-03-20T08:19:15.294Z,94097.72
2018-03-20T08:21:41.294Z,94101.05
2018-03-20T08:24:07.279Z,94097.47
2018-03-20T08:26:33.278Z,94095.90
2018-03-20T08:28:59.288Z,94098.08
2018-03-20T08:31:25.285Z,94103.18
2018-03-20T08:33:51.276Z,94110.83
2018-03-20T08:36:17.259Z,94114.95
2018-03-20T08:38:43.261Z,94120.09
2018-03-20T08:41:09.245Z,94116.94
2018-03-20T08:43:35.383Z,94110.64
2018-03-20T08:46:01.367Z,94110.69
2018-03-20T08:48:27.349Z,94114.38
2018-03-20T08:50:53.371Z,94121.26
2018-03-20T08:53:19.362Z,94120.86
2018-03-20T08:55:45.353Z,94113.26
2018-03-20T08:58:11.354Z,94115.41
2018-03-20T09:00:37.374Z,94125.84
2018-03-20T09:03:03.346Z,94125.26
2018-03-20T09:05:29.356Z,94121.52
2018-03-20T09:07:55.378Z,94123.06
2018-03-20T09:10:21.366Z,94129.94
2018-03-20T09:12:47.361Z,94131.47
2018-03-20T09:15:13.361Z,94136.20
2018-03-20T09:17:39.368Z,94136.59
2018-03-20T09:20:05.403Z,94134.22
2018-03-20T09:22:31.376Z,94134.42
2018-03-20T09:24:57.416Z,94137.75
2018-03-20T09:27:23.411Z,94135.41
2018-03-20T09:29:49.404Z,94140.91
2018-03-20T09:32:15.426Z,94143.25
2018-03-20T09:34:41.450Z,94146.41
2018-03-20T09:37:07.420Z,94142.86
2018-03-20T09:39:33.450Z,94139.53
2018-03-20T09:41:59.399Z,94138.73
2018-03-20T09:44:25.388Z,94144.05
2018-03-20T09:46:51.400Z,94149.94
2018-03-20T09:49:17.448Z,94146.22
2018-03-20T09:51:43.448Z,94147.95
2018-03-20T09:54:09.472Z,94153.27
2018-03-20T09:56:35.481Z,94153.28
2018-03-20T09:59:01.476Z,94157.80
2018-03-20T10:01:27.465Z,94151.72
2018-03-20T10:03:53.490Z,94157.00
2018-03-20T10:06:19.505Z,94163.30
2018-03-20T10:08:45.550Z,94166.44
2018-03-20T10:11:11.578Z,94169.38
2018-03-20T10:13:37.590Z,94168.80
2018-03-20T10:16:03.611Z,94178.23
2018-03-20T10:18:29.624Z,94174.70
2018-03-20T10:20:55.685Z,94175.45
2018-03-20T10:23:21.672Z,94179.01
2018-03-20T10:25:47.706Z,94180.96
2018-03-20T10:28:13.725Z,94180.37
2018-03-20T10:30:39.764Z,94173.31
2018-03-20T10:33:05.780Z,94178.81
2018-03-20T10:35:31.820Z,94182.34
2018-03-20T10:37:57.959Z,94185.89
2018-03-20T10:40:23.985Z,94185.51
2018-03-20T10:42:50.037Z,94189.06
2018-03-20T10:45:16.034Z,94188.89
2018-03-20T10:47:42.025Z,94188.68
2018-03-20T10:50:08.047Z,94196.19
2018-03-20T10:52:34.056Z,94195.61
2018-03-20T10:55:00.074Z,94192.68
2018-03-20T10:57:26.063Z,94198.40
2018-03-20T10:59:52.079Z,94198.80
2018-03-20T11:02:18.132Z,94201.37
2018-03-20T11:04:44.117Z,94200.37
2018-03-20T11:07:10.110Z,94202.14
2018-03-20T11:09:36.145Z,94197.59
2018-03-20T11:12:02.112Z,94196.43
2018-03-20T11:14:28.139Z,94198.00
2018-03-20T11:16:54.139Z,94192.87
2018-03-20T11:19:20.167Z,94201.73
2018-03-20T11:21:46.130Z,94198.78
2018-03-20T11:24:12.125Z,94200.75
2018-03-20T11:26:38.126Z,94202.52
2018-03-20T11:29:04.158Z,94199.38
2018-03-20T11:31:30.124Z,94204.30
2018-03-20T11:33:56.115Z,94205.68
2018-03-20T11:36:22.157Z,94210.59
2018-03-20T11:38:48.117Z,94207.63
2018-03-20T11:41:14.139Z,94204.69
2018-03-20T11:43:40.100Z,94208.61
2018-03-20T11:46:06.097Z,94213.91
2018-03-20T11:48:32.084Z,94208.23
2018-03-20T11:50:58.089Z,94204.11
2018-03-20T11:53:24.066Z,94211.19
2018-03-20T11:55:50.160Z,94205.28
2018-03-20T11:58:16.155Z,94197.41
2018-03-20T12:00:42.179Z,94198.40
2018-03-20T12:03:08.173Z,94199.58
2018-03-20T12:05:34.202Z,94205.86
2018-03-20T12:08:00.167Z,94199.78
2018-03-20T12:10:26.159Z,94201.37
2018-03-20T12:12:53.541Z,94209.63
2018-03-20T12:15:34.562Z,94213.38
2018-03-20T12:18:01.025Z,94216.88
2018-03-20T12:20:27.006Z,94210.42
2018-03-20T12:22:53.033Z,94222.83
2018-03-20T12:25:19.081Z,94233.86
2018-03-20T12:27:45.038Z,94236.26
2018-03-20T12:30:11.016Z,94235.25
2018-03-20T12:32:37.068Z,94252.97
2018-03-20T12:35:03.049Z,94261.03
2018-03-20T12:37:29.207Z,94259.67
2018-03-20T12:39:55.391Z,94254.34
2018-03-20T12:42:21.408Z,94258.89
2018-03-20T12:44:47.402Z,94246.89
2018-03-20T12:47:13.394Z,94244.16
2018-03-20T12:49:39.402Z,94258.70
2018-03-20T12:52:05.394Z,94252.25
2018-03-20T12:54:31.492Z,94252.05
2018-03-20T12:56:57.392Z,94245.34
2018-03-20T12:59:23.390Z,94245.36
2018-03-20T13:01:49.383Z,94241.23
2018-03-20T13:04:15.374Z,94242.44
2018-03-20T13:06:41.394Z,94247.78
2018-03-20T13:09:07.397Z,94256.23
2018-03-20T13:11:33.448Z,94245.23
2018-03-20T13:13:59.406Z,94243.05
2018-03-20T13:16:25.419Z,94240.72
2018-03-20T13:18:51.452Z,94239.76
2018-03-20T13:21:17.429Z,94244.86
2018-03-20T13:23:43.422Z,94240.95
2018-03-20T13:26:09.455Z,94247.25
2018-03-20T13:28:35.421Z,94242.38
2018-03-20T13:31:01.413Z,94245.90
2018-03-20T13:33:27.432Z,94248.45
2018-03-20T13:35:53.475Z,94247.67
2018-03-20T13:38:19.468Z,94258.11
2018-03-20T13:40:45.505Z,94260.27
2018-03-20T13:43:11.504Z,94259.28
2018-03-20T13:45:37.506Z,94258.30
2018-03-20T13:48:03.525Z,94263.59
2018-03-20T13:50:29.530Z,94260.27
2018-03-20T13:52:55.522Z,94271.86
2018-03-20T13:55:21.483Z,94275.98
2018-03-20T13:57:47.471Z,94276.97
2018-03-20T14:00:13.503Z,94270.46
2018-03-20T14:02:39.569Z,94275.75
2018-03-20T14:05:05.521Z,94259.83
2018-03-20T14:07:31.516Z,94258.03
2018-03-20T14:09:58.440Z,94265.70
2018-03-20T14:12:24.437Z,94272.76
2018-03-20T14:14:51.490Z,94281.02
2018-03-20T14:17:17.528Z,94281.00
2018-03-20T14:19:43.489Z,94275.48
2018-03-20T14:22:09.508Z,94276.27
2018-03-20T14:24:35.502Z,94287.27
2018-03-20T14:27:01.506Z,94297.88
2018-03-20T14:29:28.000Z,94298.25
2018-03-20T14:31:54.033Z,94299.02
2018-03-20T14:34:19.992Z,94284.66
2018-03-20T14:36:46.048Z,94275.20
2018-03-20T14:39:11.996Z,94283.67
2018-03-20T14:41:37.985Z,94305.48
2018-03-20T14:44:03.995Z,94303.77
2018-03-20T14:46:30.049Z,94307.69
2018-03-20T14:48:56.042Z,94307.48
2018-03-20T14:51:22.187Z,94303.94
2018-03-20T14:53:48.188Z,94306.11
2018-03-20T14:56:14.188Z,94307.66
2018-03-20T14:58:40.188Z,94308.84
2018-03-20T15:01:06.190Z,94304.71
2018-03-20T15:03:32.480Z,94305.46
2018-03-20T15:05:58.474Z,94309.59
2018-03-20T15:08:24.437Z,94316.88
2018-03-20T15:10:50.700Z,94315.50
2018-03-20T15:13:16.697Z,94309.82
2018-03-20T15:15:42.720Z,94319.62
2018-03-20T15:18:08.714Z,94322.36
2018-03-20T15:20:34.674Z,94328.27
2018-03-20T15:23:00.673Z,94334.81
2018-03-20T15:25:26.671Z,94332.50
2018-03-20T15:27:52.662Z,94335.25
2018-03-20T15:30:18.665Z,94329.80
2018-03-20T15:32:44.702Z,94331.91
2018-03-20T15:35:10.653Z,94339.05
2018-03-20T15:37:36.686Z,94341.69
2018-03-20T15:40:02.647Z,94339.09
2018-03-20T15:42:28.643Z,94337.12
2018-03-20T15:44:54.668Z,94332.59
2018-03-20T15:47:20.682Z,94333.19
2018-03-20T15:49:46.673Z,94338.49
2018-03-20T15:52:12.666Z,94345.37
2018-03-20T15:54:38.672Z,94339.88
2018-03-20T15:57:04.679Z,94340.08
2018-03-20T15:59:30.691Z,94338.72
2018-03-20T16:01:56.682Z,94342.27
2018-03-20T16:04:22.687Z,94342.71
2018-03-20T16:06:48.713Z,94358.34
2018-03-20T16:09:14.687Z,94366.37
2018-03-20T16:11:40.740Z,94368.33
2018-03-20T16:14:07.845Z,94372.81
2018-03-20T16:16:33.829Z,94374.39
2018-03-20T16:19:04.367Z,94380.10
2018-03-20T16:21:28.991Z,94375.52
2018-03-20T16:24:01.987Z,94377.91
2018-03-20T16:26:27.972Z,94385.16
2018-03-20T16:28:53.950Z,94389.08
2018-03-20T16:31:19.937Z,94405.41
2018-03-20T16:33:46.796Z,94422.48
2018-03-20T16:36:13.095Z,94431.55
2018-03-20T16:38:39.073Z,94436.25
2018-03-20T16:41:05.121Z,94435.03
2018-03-20T16:43:31.121Z,94440.77
2018-03-20T16:46:00.605Z,94430.32
2018-03-20T16:48:27.490Z,94438.58
2018-03-20T16:50:53.612Z,94437.78
2018-03-20T16:53:19.960Z,94452.36
2018-03-20T16:55:46.547Z,94444.29
2018-03-20T16:58:12.553Z,94447.05
2018-03-20T17:00:39.574Z,94450.83
2018-03-20T17:03:05.615Z,94453.00
2018-03-20T17:05:31.715Z,94446.92
2018-03-20T17:07:57.727Z,94463.47
2018-03-20T17:10:23.735Z,94464.67
2018-03-20T17:12:51.110Z,94474.08
2018-03-20T17:15:17.063Z,94476.39
2018-03-20T17:17:43.044Z,94487.98
2018-03-20T17:20:09.054Z,94487.76
2018-03-20T17:22:35.005Z,94490.91
2018-03-20T17:25:00.970Z,94490.13
2018-03-20T17:27:26.982Z,94490.73
2018-03-20T17:29:52.966Z,94502.62
2018-03-20T17:32:18.978Z,94506.31
2018-03-20T17:34:44.925Z,94509.27
2018-03-20T17:37:10.945Z,94509.27
2018-03-20T17:39:36.888Z,94516.72
2018-03-20T17:42:02.870Z,94527.14
2018-03-20T17:44:28.847Z,94529.89
2018-03-20T17:46:54.853Z,94539.13
2018-03-20T17:49:20.832Z,94537.16
2018-03-20T17:51:46.867Z,94536.18
2018-03-20T17:54:12.828Z,94530.67
2018-03-20T17:56:38.847Z,94531.42
2018-03-20T17:59:04.791Z,94535.35
2018-03-20T18:01:30.769Z,94541.05
2018-03-20T18:03:56.743Z,94541.45
2018-03-20T18:06:22.750Z,94546.56
2018-03-20T18:08:48.732Z,94548.12
2018-03-20T18:11:14.722Z,94554.34
2018-03-20T18:13:40.741Z,94563.98
2018-03-20T18:16:06.714Z,94560.11
2018-03-20T18:18:32.690Z,94557.33
2018-03-20T18:20:58.744Z,94563.01
2018-03-20T18:23:24.726Z,94566.73
2018-03-20T18:25:50.704Z,94567.42
2018-03-20T18:28:16.694Z,94570.12
2018-03-20T18:30:42.700Z,94565.41
2018-03-20T18:33:08.649Z,94568.77
2018-03-20T18:35:34.636Z,94568.12
2018-03-20T18:38:00.666Z,94563.78
2018-03-20T18:40:26.630Z,94572.84
2018-03-20T18:42:52.639Z,94568.29
2018-03-20T18:45:18.632Z,94567.52
2018-03-20T18:47:44.685Z,94564.77
2018-03-20T18:50:10.683Z,94559.25
2018-03-20T18:52:36.635Z,94562.61
2018-03-20T18:55:02.639Z,94570.06
2018-03-20T18:57:28.613Z,94585.78
2018-03-20T18:59:54.618Z,94594.19
2018-03-20T19:02:20.599Z,94595.97
2018-03-20T19:04:46.623Z,94596.37
2018-03-20T19:07:12.573Z,94604.86
2018-03-20T19:09:39.315Z,94599.53
2018-03-20T19:12:05.292Z,94602.08
2018-03-20T19:14:31.327Z,94597.34
2018-03-20T19:16:57.283Z,94604.80
2018-03-20T19:19:23.277Z,94613.33
2018-03-20T19:21:49.265Z,94621.81
2018-03-20T19:24:15.300Z,94629.30
2018-03-20T19:26:41.320Z,94626.17
2018-03-20T19:29:07.298Z,94631.25
2018-03-20T19:31:33.292Z,94645.63
2018-03-20T19:33:59.319Z,94647.00
2018-03-20T19:36:25.444Z,94652.08
2018-03-20T19:38:51.462Z,94648.31
2018-03-20T19:41:17.467Z,94642.21
2018-03-20T19:43:43.446Z,94642.37
2018-03-20T19:46:09.556Z,94640.23
2018-03-20T19:48:35.535Z,94635.70
2018-03-20T19:51:01.575Z,94638.62
2018-03-20T19:53:27.660Z,94640.20
2018-03-20T19:55:53.831Z,94646.08
2018-03-20T19:58:20.194Z,94653.80
2018-03-20T20:00:46.201Z,94660.68
2018-03-20T20:03:12.183Z,94663.27
2018-03-20T20:05:38.158Z,94666.16
2018-03-20T20:08:04.169Z,94672.06
2018-03-20T20:10:30.156Z,94673.04
2018-03-20T20:12:56.113Z,94669.52
2018-03-20T20:15:22.090Z,94667.73
2018-03-20T20:17:48.097Z,94656.55
2018-03-20T20:20:14.092Z,94662.83
2018-03-20T20:22:40.102Z,94665.16
2018-03-20T20:25:06.047Z,94671.84
2018-03-20T20:27:32.051Z,94673.64
2018-03-20T20:29:58.044Z,94671.87
2018-03-20T20:32:24.060Z,94675.02
2018-03-20T20:34:50.073Z,94671.23
2018-03-20T20:37:16.038Z,94680.47
2018-03-20T20:39:42.049Z,94676.94
2018-03-20T20:42:08.047Z,94687.18
2018-03-20T20:44:34.032Z,94669.69
2018-03-20T20:47:00.058Z,94666.70
2018-03-20T20:49:26.088Z,94672.03
2018-03-20T20:51:52.061Z,94677.14
2018-03-20T20:54:18.005Z,94679.35
2018-03-20T20:56:43.986Z,94683.05
2018-03-20T20:59:10.078Z,94678.12
2018-03-20T21:01:36.063Z,94682.25
2018-03-20T21:04:02.054Z,94683.45
2018-03-20T21:06:28.062Z,94686.75
2018-03-20T21:08:54.049Z,94685.77
2018-03-20T21:11:20.030Z,94678.48
2018-03-20T21:13:46.105Z,94680.67
2018-03-20T21:16:12.113Z,94682.84
2018-03-20T21:18:38.059Z,94689.33
2018-03-20T21:21:04.035Z,94688.36
2018-03-20T21:23:30.025Z,94685.57
2018-03-20T21:25:56.005Z,94692.48
2018-03-20T21:28:21.985Z,94681.81
2018-03-20T21:30:48.002Z,94687.12
2018-03-20T21:33:13.942Z,94689.30
2018-03-20T21:35:39.964Z,94692.05
2018-03-20T21:38:05.944Z,94695.95
2018-03-20T21:40:31.924Z,94691.82
2018-03-20T21:42:57.872Z,94694.41
2018-03-20T21:45:23.848Z,94697.97
2018-03-20T21:47:49.902Z,94701.48
2018-03-20T21:50:15.799Z,94699.71
2018-03-20T21:52:41.808Z,94705.45
2018-03-20T21:55:07.789Z,94712.33
2018-03-20T21:57:33.786Z,94709.34
2018-03-20T21:59:59.770Z,94711.90
2018-03-20T22:02:25.760Z,94720.73
2018-03-20T22:04:51.735Z,94720.53
2018-03-20T22:07:17.744Z,94720.90
2018-03-20T22:09:43.722Z,94722.27
2018-03-20T22:12:09.663Z,94721.88
2018-03-20T22:14:35.723Z,94725.77
2018-03-20T22:17:01.664Z,94721.64
2018-03-20T22:19:27.656Z,94726.71
2018-03-20T22:21:53.664Z,94723.59
2018-03-20T22:24:19.617Z,94734.23
2018-03-20T22:26:45.592Z,94733.59
2018-03-20T22:29:11.634Z,94721.58
2018-03-20T22:31:37.643Z,94720.03
2018-03-20T22:34:03.593Z,94718.08
2018-03-20T22:36:29.570Z,94717.45
2018-03-20T22:38:55.582Z,94718.62
2018-03-20T22:41:21.554Z,94711.73
2018-03-20T22:43:47.532Z,94721.14
2018-03-20T22:46:13.540Z,94719.96
2018-03-20T22:48:39.519Z,94718.02
2018-03-20T22:51:05.486Z,94714.19
2018-03-20T22:53:31.479Z,94716.00
2018-03-20T22:55:57.451Z,94720.09
2018-03-20T22:58:23.455Z,94723.28
2018-03-20T23:00:49.440Z,94716.98
2018-03-20T23:03:15.451Z,94724.86
2018-03-20T23:05:41.419Z,94723.66
2018-03-20T23:08:07.408Z,94721.88
2018-03-20T23:10:33.388Z,94726.58
2018-03-20T23:12:59.416Z,94734.06
2018-03-20T23:15:25.357Z,94738.59
2018-03-20T23:17:51.342Z,94743.09
2018-03-20T23:20:17.314Z,94737.22
2018-03-20T23:22:43.291Z,94733.83
2018-03-20T23:25:09.299Z,94747.39
2018-03-20T23:27:35.241Z,94746.41
2018-03-20T23:30:01.222Z,94757.59
2018-03-20T23:32:27.196Z,94760.75
2018-03-20T23:34:53.182Z,94753.47
2018-03-20T23:37:19.162Z,94757.02
2018-03-20T23:39:45.137Z,94758.80
2018-03-20T23:42:11.116Z,94767.88
2018-03-20T23:44:37.087Z,94769.61
2018-03-20T23:47:03.061Z,94751.92
2018-03-20T23:49:29.043Z,94739.12
2018-03-20T23:51:55.017Z,94756.99
2018-03-20T23:54:20.997Z,94759.74
2018-03-20T23:56:47.009Z,94765.66
2018-03-20T23:59:12.957Z,94755.21
